Abington, Indiana
Current Conditions -  °F | °C
As of 8:53 PM on Friday 21 Nov 2014 (Local Time) from KMIE Reporting Station
Clear Clear  
Wind Chill: 18°   Ceiling: Unl
Heat Index: 26°   Visibility: 10mi
Dew Point: 11°   Wind: 8mph
Humidity: 53%   Direction: 190°S
Pressure: 30.37"   Gusts: NA
Location:  39.7862°N, 85.0229°W
Report Text: KMIE 220153Z 19007KT 10SM CLR M03/M12 A3037 RMK AO2 SLP296 T10331117
Loading
Personal Weather Stations






























Interactive Weather Map New forecast layout! Learn more

10-Day Weather Forecast

Advertisements
Track Severe Weather on mobile